sensor_id;sensor_type;location;lat;lon;timestamp;temperature;humidity
56322;DHT22;42227;6.376;-10.782;2023-05-28T00:00:47;30.00;53.70
56322;DHT22;42227;6.376;-10.782;2023-05-28T00:03:15;30.10;53.40
56322;DHT22;42227;6.376;-10.782;2023-05-28T00:05:44;30.00;52.50
56322;DHT22;42227;6.376;-10.782;2023-05-28T00:08:13;30.00;52.10
56322;DHT22;42227;6.376;-10.782;2023-05-28T00:10:42;29.70;53.80
56322;DHT22;42227;6.376;-10.782;2023-05-28T00:13:10;29.50;54.90
56322;DHT22;42227;6.376;-10.782;2023-05-28T00:15:39;29.40;55.80
56322;DHT22;42227;6.376;-10.782;2023-05-28T00:18:07;29.40;56.20
56322;DHT22;42227;6.376;-10.782;2023-05-28T00:20:36;29.70;54.10
56322;DHT22;42227;6.376;-10.782;2023-05-28T00:23:04;29.90;53.30
56322;DHT22;42227;6.376;-10.782;2023-05-28T00:25:33;29.90;54.00
56322;DHT22;42227;6.376;-10.782;2023-05-28T00:28:01;30.00;54.40
56322;DHT22;42227;6.376;-10.782;2023-05-28T00:30:30;30.10;53.10
56322;DHT22;42227;6.376;-10.782;2023-05-28T00:32:58;29.80;54.70
56322;DHT22;42227;6.376;-10.782;2023-05-28T00:35:27;30.00;54.50
56322;DHT22;42227;6.376;-10.782;2023-05-28T00:37:55;29.90;53.90
56322;DHT22;42227;6.376;-10.782;2023-05-28T00:40:23;30.00;54.70
56322;DHT22;42227;6.376;-10.782;2023-05-28T00:42:52;30.00;54.60
56322;DHT22;42227;6.376;-10.782;2023-05-28T00:45:22;30.00;55.70
56322;DHT22;42227;6.376;-10.782;2023-05-28T00:47:50;29.60;56.90
56322;DHT22;42227;6.376;-10.782;2023-05-28T00:50:19;29.40;58.70
56322;DHT22;42227;6.376;-10.782;2023-05-28T00:52:49;29.20;59.00
56322;DHT22;42227;6.376;-10.782;2023-05-28T00:55:18;29.10;60.10
56322;DHT22;42227;6.376;-10.782;2023-05-28T00:57:47;29.30;61.30
56322;DHT22;42227;6.376;-10.782;2023-05-28T01:00:16;29.70;59.50
56322;DHT22;42227;6.376;-10.782;2023-05-28T01:02:44;29.70;58.00
56322;DHT22;42227;6.376;-10.782;2023-05-28T01:05:13;29.80;57.90
56322;DHT22;42227;6.376;-10.782;2023-05-28T01:07:41;29.70;57.50
56322;DHT22;42227;6.376;-10.782;2023-05-28T01:10:10;29.80;57.50
56322;DHT22;42227;6.376;-10.782;2023-05-28T01:12:40;29.90;57.20
56322;DHT22;42227;6.376;-10.782;2023-05-28T01:15:11;29.90;56.50
56322;DHT22;42227;6.376;-10.782;2023-05-28T01:17:40;29.70;56.20
56322;DHT22;42227;6.376;-10.782;2023-05-28T01:20:09;29.80;56.20
56322;DHT22;42227;6.376;-10.782;2023-05-28T01:22:38;29.70;55.70
56322;DHT22;42227;6.376;-10.782;2023-05-28T01:25:08;29.70;55.90
56322;DHT22;42227;6.376;-10.782;2023-05-28T01:27:40;29.70;56.40
56322;DHT22;42227;6.376;-10.782;2023-05-28T01:30:09;29.70;55.80
56322;DHT22;42227;6.376;-10.782;2023-05-28T01:32:38;29.80;55.50
56322;DHT22;42227;6.376;-10.782;2023-05-28T01:35:08;29.80;54.50
56322;DHT22;42227;6.376;-10.782;2023-05-28T01:37:59;29.70;55.00
56322;DHT22;42227;6.376;-10.782;2023-05-28T01:40:31;29.80;54.70
56322;DHT22;42227;6.376;-10.782;2023-05-28T01:43:01;29.60;55.60
56322;DHT22;42227;6.376;-10.782;2023-05-28T01:45:31;29.80;56.00
56322;DHT22;42227;6.376;-10.782;2023-05-28T01:47:59;29.80;55.60
56322;DHT22;42227;6.376;-10.782;2023-05-28T01:50:28;29.80;54.80
56322;DHT22;42227;6.376;-10.782;2023-05-28T01:52:56;29.70;55.50
56322;DHT22;42227;6.376;-10.782;2023-05-28T01:55:26;29.60;54.70
56322;DHT22;42227;6.376;-10.782;2023-05-28T01:57:54;29.30;56.10
56322;DHT22;42227;6.376;-10.782;2023-05-28T02:00:23;29.00;57.10
56322;DHT22;42227;6.376;-10.782;2023-05-28T02:02:52;29.00;58.10
56322;DHT22;42227;6.376;-10.782;2023-05-28T02:05:21;28.90;58.90
56322;DHT22;42227;6.376;-10.782;2023-05-28T02:07:50;29.10;58.60
56322;DHT22;42227;6.376;-10.782;2023-05-28T02:10:19;29.30;57.70
56322;DHT22;42227;6.376;-10.782;2023-05-28T02:12:47;29.50;56.60
56322;DHT22;42227;6.376;-10.782;2023-05-28T02:15:15;29.50;56.00
56322;DHT22;42227;6.376;-10.782;2023-05-28T02:17:44;29.30;55.50
56322;DHT22;42227;6.376;-10.782;2023-05-28T02:20:13;29.10;56.90
56322;DHT22;42227;6.376;-10.782;2023-05-28T02:22:41;28.90;57.70
56322;DHT22;42227;6.376;-10.782;2023-05-28T02:25:10;28.80;58.60
56322;DHT22;42227;6.376;-10.782;2023-05-28T02:27:38;29.20;57.90
56322;DHT22;42227;6.376;-10.782;2023-05-28T02:30:07;29.50;56.00
56322;DHT22;42227;6.376;-10.782;2023-05-28T02:32:36;29.50;54.70
56322;DHT22;42227;6.376;-10.782;2023-05-28T02:35:04;29.60;55.00
56322;DHT22;42227;6.376;-10.782;2023-05-28T02:37:33;29.50;54.80
56322;DHT22;42227;6.376;-10.782;2023-05-28T02:40:01;29.50;55.40
56322;DHT22;42227;6.376;-10.782;2023-05-28T02:42:30;29.60;54.30
56322;DHT22;42227;6.376;-10.782;2023-05-28T02:44:59;29.60;54.20
56322;DHT22;42227;6.376;-10.782;2023-05-28T02:47:27;29.60;54.80
56322;DHT22;42227;6.376;-10.782;2023-05-28T02:49:57;29.70;54.90
56322;DHT22;42227;6.376;-10.782;2023-05-28T02:52:26;29.60;53.50
56322;DHT22;42227;6.376;-10.782;2023-05-28T02:54:56;29.60;55.00
56322;DHT22;42227;6.376;-10.782;2023-05-28T02:57:26;29.60;54.80
56322;DHT22;42227;6.376;-10.782;2023-05-28T02:59:55;29.70;53.90
56322;DHT22;42227;6.376;-10.782;2023-05-28T03:02:24;29.60;54.00
56322;DHT22;42227;6.376;-10.782;2023-05-28T03:04:53;29.40;54.90
56322;DHT22;42227;6.376;-10.782;2023-05-28T03:07:21;29.10;56.10
56322;DHT22;42227;6.376;-10.782;2023-05-28T03:09:50;28.90;56.70
56322;DHT22;42227;6.376;-10.782;2023-05-28T03:12:19;28.80;58.00
56322;DHT22;42227;6.376;-10.782;2023-05-28T03:14:47;29.10;57.90
56322;DHT22;42227;6.376;-10.782;2023-05-28T03:17:16;29.30;56.00
56322;DHT22;42227;6.376;-10.782;2023-05-28T03:19:44;29.50;55.20
56322;DHT22;42227;6.376;-10.782;2023-05-28T03:22:15;29.60;54.90
56322;DHT22;42227;6.376;-10.782;2023-05-28T03:24:43;29.40;53.90
56322;DHT22;42227;6.376;-10.782;2023-05-28T03:27:13;29.10;56.30
56322;DHT22;42227;6.376;-10.782;2023-05-28T03:29:43;28.90;56.50
56322;DHT22;42227;6.376;-10.782;2023-05-28T03:32:23;28.80;57.00
56322;DHT22;42227;6.376;-10.782;2023-05-28T03:34:51;29.00;57.60
56322;DHT22;42227;6.376;-10.782;2023-05-28T03:37:26;29.30;55.60
56322;DHT22;42227;6.376;-10.782;2023-05-28T03:39:54;29.50;55.10
56322;DHT22;42227;6.376;-10.782;2023-05-28T03:42:22;29.70;54.10
56322;DHT22;42227;6.376;-10.782;2023-05-28T03:44:52;29.70;54.00
56322;DHT22;42227;6.376;-10.782;2023-05-28T03:47:20;29.70;54.20
56322;DHT22;42227;6.376;-10.782;2023-05-28T03:49:48;29.60;54.10
56322;DHT22;42227;6.376;-10.782;2023-05-28T03:52:17;29.60;54.10
56322;DHT22;42227;6.376;-10.782;2023-05-28T03:54:52;29.70;54.20
56322;DHT22;42227;6.376;-10.782;2023-05-28T03:57:21;29.50;55.20
56322;DHT22;42227;6.376;-10.782;2023-05-28T03:59:49;29.60;55.30
56322;DHT22;42227;6.376;-10.782;2023-05-28T04:02:18;29.60;55.10
56322;DHT22;42227;6.376;-10.782;2023-05-28T04:04:46;29.70;54.30
56322;DHT22;42227;6.376;-10.782;2023-05-28T04:07:15;29.60;55.10
56322;DHT22;42227;6.376;-10.782;2023-05-28T04:09:43;29.60;56.80
56322;DHT22;42227;6.376;-10.782;2023-05-28T04:12:12;29.40;57.10
56322;DHT22;42227;6.376;-10.782;2023-05-28T04:14:40;29.00;60.00
56322;DHT22;42227;6.376;-10.782;2023-05-28T04:17:09;28.90;61.80
56322;DHT22;42227;6.376;-10.782;2023-05-28T04:19:38;28.70;63.80
56322;DHT22;42227;6.376;-10.782;2023-05-28T04:22:07;28.80;64.60
56322;DHT22;42227;6.376;-10.782;2023-05-28T04:24:36;28.80;63.70
56322;DHT22;42227;6.376;-10.782;2023-05-28T04:27:05;29.00;63.10
56322;DHT22;42227;6.376;-10.782;2023-05-28T04:29:33;28.90;64.70
56322;DHT22;42227;6.376;-10.782;2023-05-28T04:32:02;28.90;64.80
56322;DHT22;42227;6.376;-10.782;2023-05-28T04:34:30;28.80;64.60
56322;DHT22;42227;6.376;-10.782;2023-05-28T04:36:59;28.80;64.80
56322;DHT22;42227;6.376;-10.782;2023-05-28T04:39:27;28.70;65.00
56322;DHT22;42227;6.376;-10.782;2023-05-28T04:41:56;28.70;65.30
56322;DHT22;42227;6.376;-10.782;2023-05-28T04:44:24;28.60;65.30
56322;DHT22;42227;6.376;-10.782;2023-05-28T04:46:54;28.50;67.00
56322;DHT22;42227;6.376;-10.782;2023-05-28T04:49:23;28.40;67.30
56322;DHT22;42227;6.376;-10.782;2023-05-28T04:51:52;28.40;68.40
56322;DHT22;42227;6.376;-10.782;2023-05-28T04:54:20;28.40;68.00
56322;DHT22;42227;6.376;-10.782;2023-05-28T04:56:49;28.50;66.80
56322;DHT22;42227;6.376;-10.782;2023-05-28T04:59:17;28.60;66.50
56322;DHT22;42227;6.376;-10.782;2023-05-28T05:01:45;28.60;66.50
56322;DHT22;42227;6.376;-10.782;2023-05-28T05:04:14;28.60;66.90
56322;DHT22;42227;6.376;-10.782;2023-05-28T05:06:43;28.80;66.50
56322;DHT22;42227;6.376;-10.782;2023-05-28T05:09:11;28.80;65.00
56322;DHT22;42227;6.376;-10.782;2023-05-28T05:11:39;28.70;65.50
56322;DHT22;42227;6.376;-10.782;2023-05-28T05:14:08;28.50;65.20
56322;DHT22;42227;6.376;-10.782;2023-05-28T05:16:36;28.50;66.20
56322;DHT22;42227;6.376;-10.782;2023-05-28T05:19:05;28.50;66.80
56322;DHT22;42227;6.376;-10.782;2023-05-28T05:21:33;28.60;66.00
56322;DHT22;42227;6.376;-10.782;2023-05-28T05:24:02;28.70;65.70
56322;DHT22;42227;6.376;-10.782;2023-05-28T05:26:30;28.80;64.40
56322;DHT22;42227;6.376;-10.782;2023-05-28T05:28:59;29.00;63.50
56322;DHT22;42227;6.376;-10.782;2023-05-28T05:31:28;29.00;63.40
56322;DHT22;42227;6.376;-10.782;2023-05-28T05:33:57;28.90;62.80
56322;DHT22;42227;6.376;-10.782;2023-05-28T05:37:04;29.00;63.40
56322;DHT22;42227;6.376;-10.782;2023-05-28T05:39:45;28.70;64.30
56322;DHT22;42227;6.376;-10.782;2023-05-28T05:42:29;28.60;64.40
56322;DHT22;42227;6.376;-10.782;2023-05-28T05:44:57;28.50;64.40
56322;DHT22;42227;6.376;-10.782;2023-05-28T05:47:25;28.40;64.80
56322;DHT22;42227;6.376;-10.782;2023-05-28T05:49:55;28.60;65.10
56322;DHT22;42227;6.376;-10.782;2023-05-28T05:52:25;28.70;64.90
56322;DHT22;42227;6.376;-10.782;2023-05-28T05:54:55;28.70;64.20
56322;DHT22;42227;6.376;-10.782;2023-05-28T05:57:24;28.70;64.90
56322;DHT22;42227;6.376;-10.782;2023-05-28T05:59:54;28.40;65.50
56322;DHT22;42227;6.376;-10.782;2023-05-28T06:02:23;28.10;67.30
56322;DHT22;42227;6.376;-10.782;2023-05-28T06:04:52;28.10;68.60
56322;DHT22;42227;6.376;-10.782;2023-05-28T06:07:53;28.20;68.90
56322;DHT22;42227;6.376;-10.782;2023-05-28T06:10:53;28.30;68.70
56322;DHT22;42227;6.376;-10.782;2023-05-28T06:13:22;28.40;68.10
56322;DHT22;42227;6.376;-10.782;2023-05-28T06:15:50;28.40;67.70
56322;DHT22;42227;6.376;-10.782;2023-05-28T06:18:19;28.60;67.30
56322;DHT22;42227;6.376;-10.782;2023-05-28T06:20:49;28.50;65.80
56322;DHT22;42227;6.376;-10.782;2023-05-28T06:23:18;28.30;67.60
56322;DHT22;42227;6.376;-10.782;2023-05-28T06:25:46;28.30;68.30
56322;DHT22;42227;6.376;-10.782;2023-05-28T06:28:14;28.10;68.90
56322;DHT22;42227;6.376;-10.782;2023-05-28T06:30:43;28.20;69.60
56322;DHT22;42227;6.376;-10.782;2023-05-28T06:33:12;28.30;69.00
56322;DHT22;42227;6.376;-10.782;2023-05-28T06:35:41;28.20;68.90
56322;DHT22;42227;6.376;-10.782;2023-05-28T06:38:10;28.30;68.70
56322;DHT22;42227;6.376;-10.782;2023-05-28T06:40:38;28.40;68.70
56322;DHT22;42227;6.376;-10.782;2023-05-28T06:43:07;28.40;68.90
56322;DHT22;42227;6.376;-10.782;2023-05-28T06:45:54;28.40;69.20
56322;DHT22;42227;6.376;-10.782;2023-05-28T06:48:23;28.50;69.80
56322;DHT22;42227;6.376;-10.782;2023-05-28T06:50:53;28.50;69.50
56322;DHT22;42227;6.376;-10.782;2023-05-28T06:53:21;28.50;71.00
56322;DHT22;42227;6.376;-10.782;2023-05-28T06:55:50;28.60;69.60
56322;DHT22;42227;6.376;-10.782;2023-05-28T06:58:39;28.70;69.20
56322;DHT22;42227;6.376;-10.782;2023-05-28T07:01:39;28.70;67.80
56322;DHT22;42227;6.376;-10.782;2023-05-28T07:04:28;28.70;68.40
56322;DHT22;42227;6.376;-10.782;2023-05-28T07:07:09;28.70;68.30
56322;DHT22;42227;6.376;-10.782;2023-05-28T07:09:38;28.70;68.50
56322;DHT22;42227;6.376;-10.782;2023-05-28T07:12:07;28.60;69.40
56322;DHT22;42227;6.376;-10.782;2023-05-28T07:14:39;28.60;69.90
56322;DHT22;42227;6.376;-10.782;2023-05-28T07:17:07;28.50;69.90
56322;DHT22;42227;6.376;-10.782;2023-05-28T07:19:36;28.70;70.40
56322;DHT22;42227;6.376;-10.782;2023-05-28T07:22:05;28.90;69.70
56322;DHT22;42227;6.376;-10.782;2023-05-28T07:24:34;29.10;69.00
56322;DHT22;42227;6.376;-10.782;2023-05-28T07:27:03;29.30;67.10
56322;DHT22;42227;6.376;-10.782;2023-05-28T07:29:32;29.50;65.60
56322;DHT22;42227;6.376;-10.782;2023-05-28T07:32:00;29.50;66.00
56322;DHT22;42227;6.376;-10.782;2023-05-28T07:34:33;29.40;66.80
56322;DHT22;42227;6.376;-10.782;2023-05-28T07:37:01;29.50;66.10
56322;DHT22;42227;6.376;-10.782;2023-05-28T07:39:30;29.60;64.50
56322;DHT22;42227;6.376;-10.782;2023-05-28T07:41:59;29.80;63.60
56322;DHT22;42227;6.376;-10.782;2023-05-28T07:44:34;29.80;64.00
56322;DHT22;42227;6.376;-10.782;2023-05-28T07:47:03;29.80;63.80
56322;DHT22;42227;6.376;-10.782;2023-05-28T07:49:50;29.60;63.80
56322;DHT22;42227;6.376;-10.782;2023-05-28T07:52:22;29.30;64.30
56322;DHT22;42227;6.376;-10.782;2023-05-28T07:54:51;29.10;67.40
56322;DHT22;42227;6.376;-10.782;2023-05-28T07:57:20;28.90;68.40
56322;DHT22;42227;6.376;-10.782;2023-05-28T07:59:49;28.90;69.70
56322;DHT22;42227;6.376;-10.782;2023-05-28T08:02:19;28.90;68.50
56322;DHT22;42227;6.376;-10.782;2023-05-28T08:04:48;29.20;66.30
56322;DHT22;42227;6.376;-10.782;2023-05-28T08:07:17;29.20;65.60
56322;DHT22;42227;6.376;-10.782;2023-05-28T08:09:45;29.40;64.80
56322;DHT22;42227;6.376;-10.782;2023-05-28T08:12:17;29.10;63.90
56322;DHT22;42227;6.376;-10.782;2023-05-28T08:14:45;28.80;65.60
56322;DHT22;42227;6.376;-10.782;2023-05-28T08:17:14;28.60;66.50
56322;DHT22;42227;6.376;-10.782;2023-05-28T08:19:57;28.60;67.50
56322;DHT22;42227;6.376;-10.782;2023-05-28T08:22:49;29.00;67.00
56322;DHT22;42227;6.376;-10.782;2023-05-28T08:25:18;29.40;65.10
56322;DHT22;42227;6.376;-10.782;2023-05-28T08:27:50;29.60;63.10
56322;DHT22;42227;6.376;-10.782;2023-05-28T08:30:19;30.00;61.00
56322;DHT22;42227;6.376;-10.782;2023-05-28T08:33:00;30.40;59.90
56322;DHT22;42227;6.376;-10.782;2023-05-28T08:35:29;31.60;55.00
56322;DHT22;42227;6.376;-10.782;2023-05-28T08:37:58;32.50;50.20
56322;DHT22;42227;6.376;-10.782;2023-05-28T08:40:54;33.00;47.20
56322;DHT22;42227;6.376;-10.782;2023-05-28T08:43:23;33.00;45.10
56322;DHT22;42227;6.376;-10.782;2023-05-28T08:45:54;33.40;44.20
56322;DHT22;42227;6.376;-10.782;2023-05-28T08:48:33;34.90;39.30
56322;DHT22;42227;6.376;-10.782;2023-05-28T08:51:03;36.00;32.40
56322;DHT22;42227;6.376;-10.782;2023-05-28T08:53:44;36.50;27.60
56322;DHT22;42227;6.376;-10.782;2023-05-28T08:56:20;36.30;28.40
56322;DHT22;42227;6.376;-10.782;2023-05-28T08:58:49;36.10;27.80
56322;DHT22;42227;6.376;-10.782;2023-05-28T09:01:20;36.40;29.10
56322;DHT22;42227;6.376;-10.782;2023-05-28T09:04:04;35.90;30.50
56322;DHT22;42227;6.376;-10.782;2023-05-28T09:06:41;35.30;34.30
56322;DHT22;42227;6.376;-10.782;2023-05-28T09:09:45;35.40;31.00
56322;DHT22;42227;6.376;-10.782;2023-05-28T09:12:21;37.40;28.20
56322;DHT22;42227;6.376;-10.782;2023-05-28T09:14:55;38.80;18.70
56322;DHT22;42227;6.376;-10.782;2023-05-28T09:17:36;39.50;17.00
56322;DHT22;42227;6.376;-10.782;2023-05-28T09:20:12;40.50;11.60
56322;DHT22;42227;6.376;-10.782;2023-05-28T09:22:43;40.70;11.50
56322;DHT22;42227;6.376;-10.782;2023-05-28T09:25:24;39.40;15.90
56322;DHT22;42227;6.376;-10.782;2023-05-28T09:27:59;38.60;16.00
56322;DHT22;42227;6.376;-10.782;2023-05-28T09:30:27;37.90;17.40
56322;DHT22;42227;6.376;-10.782;2023-05-28T09:33:03;37.50;20.80
56322;DHT22;42227;6.376;-10.782;2023-05-28T09:35:33;37.40;21.80
56322;DHT22;42227;6.376;-10.782;2023-05-28T09:38:05;37.10;20.90
56322;DHT22;42227;6.376;-10.782;2023-05-28T09:40:43;38.30;19.10
56322;DHT22;42227;6.376;-10.782;2023-05-28T09:43:12;38.30;18.10
56322;DHT22;42227;6.376;-10.782;2023-05-28T09:45:40;37.20;20.00
56322;DHT22;42227;6.376;-10.782;2023-05-28T09:48:09;36.90;22.10
56322;DHT22;42227;6.376;-10.782;2023-05-28T09:50:37;36.30;24.20
56322;DHT22;42227;6.376;-10.782;2023-05-28T09:53:07;35.50;26.30
56322;DHT22;42227;6.376;-10.782;2023-05-28T09:55:36;35.20;27.70
56322;DHT22;42227;6.376;-10.782;2023-05-28T09:58:06;35.40;26.90
56322;DHT22;42227;6.376;-10.782;2023-05-28T10:00:43;35.50;25.40
56322;DHT22;42227;6.376;-10.782;2023-05-28T10:03:24;35.20;27.00
56322;DHT22;42227;6.376;-10.782;2023-05-28T10:05:59;34.90;28.00
56322;DHT22;42227;6.376;-10.782;2023-05-28T10:08:30;34.70;28.50
56322;DHT22;42227;6.376;-10.782;2023-05-28T10:11:01;34.70;27.70
56322;DHT22;42227;6.376;-10.782;2023-05-28T10:13:31;35.20;26.80
56322;DHT22;42227;6.376;-10.782;2023-05-28T10:15:59;35.00;27.60
56322;DHT22;42227;6.376;-10.782;2023-05-28T10:18:28;35.00;29.00
56322;DHT22;42227;6.376;-10.782;2023-05-28T10:20:58;35.30;26.50
56322;DHT22;42227;6.376;-10.782;2023-05-28T10:23:26;35.30;27.00
56322;DHT22;42227;6.376;-10.782;2023-05-28T10:25:56;34.90;27.10
56322;DHT22;42227;6.376;-10.782;2023-05-28T10:28:24;34.70;27.70
56322;DHT22;42227;6.376;-10.782;2023-05-28T10:33:30;33.90;29.20
56322;DHT22;42227;6.376;-10.782;2023-05-28T10:35:59;33.80;30.30
56322;DHT22;42227;6.376;-10.782;2023-05-28T10:38:29;34.10;30.60
56322;DHT22;42227;6.376;-10.782;2023-05-28T10:41:01;34.10;32.10
56322;DHT22;42227;6.376;-10.782;2023-05-28T10:43:46;34.20;30.30
56322;DHT22;42227;6.376;-10.782;2023-05-28T10:46:17;34.30;31.60
56322;DHT22;42227;6.376;-10.782;2023-05-28T10:51:58;33.80;30.80
56322;DHT22;42227;6.376;-10.782;2023-05-28T11:00:01;33.50;31.40
56322;DHT22;42227;6.376;-10.782;2023-05-28T11:02:33;33.90;29.70
56322;DHT22;42227;6.376;-10.782;2023-05-28T11:05:03;33.90;32.30
56322;DHT22;42227;6.376;-10.782;2023-05-28T11:07:37;33.50;33.00
56322;DHT22;42227;6.376;-10.782;2023-05-28T11:10:08;33.30;34.00
56322;DHT22;42227;6.376;-10.782;2023-05-28T11:12:38;33.60;33.30
56322;DHT22;42227;6.376;-10.782;2023-05-28T11:15:09;33.50;34.10
56322;DHT22;42227;6.376;-10.782;2023-05-28T11:17:42;33.00;34.10
56322;DHT22;42227;6.376;-10.782;2023-05-28T11:20:27;32.80;35.10
56322;DHT22;42227;6.376;-10.782;2023-05-28T11:22:55;32.70;34.90
56322;DHT22;42227;6.376;-10.782;2023-05-28T11:25:24;32.90;34.80
56322;DHT22;42227;6.376;-10.782;2023-05-28T11:27:53;32.90;35.80
56322;DHT22;42227;6.376;-10.782;2023-05-28T11:30:21;32.80;35.70
56322;DHT22;42227;6.376;-10.782;2023-05-28T11:32:50;32.60;37.50
56322;DHT22;42227;6.376;-10.782;2023-05-28T11:35:18;32.50;37.80
56322;DHT22;42227;6.376;-10.782;2023-05-28T11:37:47;32.50;39.10
56322;DHT22;42227;6.376;-10.782;2023-05-28T11:40:15;32.40;38.70
56322;DHT22;42227;6.376;-10.782;2023-05-28T11:42:45;32.40;39.00
56322;DHT22;42227;6.376;-10.782;2023-05-28T11:45:13;32.30;39.60
56322;DHT22;42227;6.376;-10.782;2023-05-28T11:47:41;32.10;39.60
56322;DHT22;42227;6.376;-10.782;2023-05-28T11:50:13;31.90;41.10
56322;DHT22;42227;6.376;-10.782;2023-05-28T11:52:43;31.90;41.20
56322;DHT22;42227;6.376;-10.782;2023-05-28T11:55:12;31.90;41.20
56322;DHT22;42227;6.376;-10.782;2023-05-28T11:57:51;32.10;40.90
56322;DHT22;42227;6.376;-10.782;2023-05-28T12:00:29;31.80;39.70
56322;DHT22;42227;6.376;-10.782;2023-05-28T12:02:59;31.60;40.30
56322;DHT22;42227;6.376;-10.782;2023-05-28T12:05:27;31.50;43.80
56322;DHT22;42227;6.376;-10.782;2023-05-28T12:08:03;31.50;44.20
56322;DHT22;42227;6.376;-10.782;2023-05-28T12:10:32;31.40;44.80
56322;DHT22;42227;6.376;-10.782;2023-05-28T12:13:00;31.50;42.20
56322;DHT22;42227;6.376;-10.782;2023-05-28T12:15:29;31.70;41.80
56322;DHT22;42227;6.376;-10.782;2023-05-28T12:17:59;31.90;42.70
56322;DHT22;42227;6.376;-10.782;2023-05-28T12:23:11;32.20;41.10
56322;DHT22;42227;6.376;-10.782;2023-05-28T12:28:11;32.80;37.70
56322;DHT22;42227;6.376;-10.782;2023-05-28T12:30:41;33.10;37.20
56322;DHT22;42227;6.376;-10.782;2023-05-28T12:33:10;33.10;37.20
56322;DHT22;42227;6.376;-10.782;2023-05-28T12:35:39;33.30;37.00
56322;DHT22;42227;6.376;-10.782;2023-05-28T12:38:08;33.40;37.20
56322;DHT22;42227;6.376;-10.782;2023-05-28T12:40:37;33.30;36.60
56322;DHT22;42227;6.376;-10.782;2023-05-28T12:43:06;33.60;37.10
56322;DHT22;42227;6.376;-10.782;2023-05-28T12:45:34;33.40;37.20
56322;DHT22;42227;6.376;-10.782;2023-05-28T12:48:03;33.30;36.20
56322;DHT22;42227;6.376;-10.782;2023-05-28T12:50:32;33.20;36.50
56322;DHT22;42227;6.376;-10.782;2023-05-28T12:53:00;33.20;36.00
56322;DHT22;42227;6.376;-10.782;2023-05-28T12:55:29;33.40;37.20
56322;DHT22;42227;6.376;-10.782;2023-05-28T12:57:58;33.40;37.20
56322;DHT22;42227;6.376;-10.782;2023-05-28T13:00:26;33.30;37.30
56322;DHT22;42227;6.376;-10.782;2023-05-28T13:02:55;33.10;36.90
56322;DHT22;42227;6.376;-10.782;2023-05-28T13:05:23;33.20;37.60
56322;DHT22;42227;6.376;-10.782;2023-05-28T13:07:52;33.80;37.20
56322;DHT22;42227;6.376;-10.782;2023-05-28T13:10:21;33.60;36.00
56322;DHT22;42227;6.376;-10.782;2023-05-28T13:12:50;33.70;34.80
56322;DHT22;42227;6.376;-10.782;2023-05-28T13:15:18;33.90;36.10
56322;DHT22;42227;6.376;-10.782;2023-05-28T13:17:47;33.70;35.60
56322;DHT22;42227;6.376;-10.782;2023-05-28T13:20:15;33.70;37.10
56322;DHT22;42227;6.376;-10.782;2023-05-28T13:22:44;33.80;35.80
56322;DHT22;42227;6.376;-10.782;2023-05-28T13:25:12;33.90;35.90
56322;DHT22;42227;6.376;-10.782;2023-05-28T13:27:40;33.90;35.10
56322;DHT22;42227;6.376;-10.782;2023-05-28T13:30:09;33.70;33.50
56322;DHT22;42227;6.376;-10.782;2023-05-28T13:32:38;33.80;34.50
56322;DHT22;42227;6.376;-10.782;2023-05-28T13:35:06;34.00;34.80
56322;DHT22;42227;6.376;-10.782;2023-05-28T13:37:35;34.10;32.50
56322;DHT22;42227;6.376;-10.782;2023-05-28T13:40:04;34.00;33.60
56322;DHT22;42227;6.376;-10.782;2023-05-28T13:42:33;33.70;36.60
56322;DHT22;42227;6.376;-10.782;2023-05-28T13:45:02;33.80;37.40
56322;DHT22;42227;6.376;-10.782;2023-05-28T13:47:30;33.90;34.50
56322;DHT22;42227;6.376;-10.782;2023-05-28T13:49:59;34.00;35.30
56322;DHT22;42227;6.376;-10.782;2023-05-28T13:52:27;33.80;34.80
56322;DHT22;42227;6.376;-10.782;2023-05-28T13:54:56;34.20;34.00
56322;DHT22;42227;6.376;-10.782;2023-05-28T13:57:24;34.30;34.00
56322;DHT22;42227;6.376;-10.782;2023-05-28T13:59:52;34.40;32.80
56322;DHT22;42227;6.376;-10.782;2023-05-28T14:02:21;34.10;34.30
56322;DHT22;42227;6.376;-10.782;2023-05-28T14:04:49;34.20;34.10
56322;DHT22;42227;6.376;-10.782;2023-05-28T14:07:18;34.00;32.20
56322;DHT22;42227;6.376;-10.782;2023-05-28T14:09:46;33.80;34.00
56322;DHT22;42227;6.376;-10.782;2023-05-28T14:12:14;33.80;34.40
56322;DHT22;42227;6.376;-10.782;2023-05-28T14:14:49;33.80;35.60
56322;DHT22;42227;6.376;-10.782;2023-05-28T14:17:18;33.70;37.70
56322;DHT22;42227;6.376;-10.782;2023-05-28T14:19:46;33.70;37.00
56322;DHT22;42227;6.376;-10.782;2023-05-28T14:22:15;33.50;34.60
56322;DHT22;42227;6.376;-10.782;2023-05-28T14:24:44;33.40;35.90
56322;DHT22;42227;6.376;-10.782;2023-05-28T14:27:12;33.50;35.60
56322;DHT22;42227;6.376;-10.782;2023-05-28T14:29:40;33.20;37.10
56322;DHT22;42227;6.376;-10.782;2023-05-28T14:32:09;33.80;36.00
56322;DHT22;42227;6.376;-10.782;2023-05-28T14:34:38;34.10;33.30
56322;DHT22;42227;6.376;-10.782;2023-05-28T14:37:06;33.80;34.50
56322;DHT22;42227;6.376;-10.782;2023-05-28T14:39:34;33.80;34.90
56322;DHT22;42227;6.376;-10.782;2023-05-28T14:42:03;33.60;34.60
56322;DHT22;42227;6.376;-10.782;2023-05-28T14:44:31;33.70;33.90
56322;DHT22;42227;6.376;-10.782;2023-05-28T14:47:00;33.80;35.30
56322;DHT22;42227;6.376;-10.782;2023-05-28T14:49:29;33.80;35.80
56322;DHT22;42227;6.376;-10.782;2023-05-28T14:51:57;33.50;35.20
56322;DHT22;42227;6.376;-10.782;2023-05-28T14:54:26;33.60;36.00
56322;DHT22;42227;6.376;-10.782;2023-05-28T14:56:54;33.70;35.40
56322;DHT22;42227;6.376;-10.782;2023-05-28T14:59:23;33.70;36.10
56322;DHT22;42227;6.376;-10.782;2023-05-28T15:01:51;33.60;35.60
56322;DHT22;42227;6.376;-10.782;2023-05-28T15:04:20;33.50;36.70
56322;DHT22;42227;6.376;-10.782;2023-05-28T15:06:48;33.60;36.30
56322;DHT22;42227;6.376;-10.782;2023-05-28T15:09:16;33.50;35.80
56322;DHT22;42227;6.376;-10.782;2023-05-28T15:11:45;33.60;37.80
56322;DHT22;42227;6.376;-10.782;2023-05-28T15:14:13;33.60;36.60
56322;DHT22;42227;6.376;-10.782;2023-05-28T15:16:41;33.70;36.40
56322;DHT22;42227;6.376;-10.782;2023-05-28T15:19:10;33.80;35.00
56322;DHT22;42227;6.376;-10.782;2023-05-28T15:21:38;34.00;35.70
56322;DHT22;42227;6.376;-10.782;2023-05-28T15:24:07;33.90;34.60
56322;DHT22;42227;6.376;-10.782;2023-05-28T15:26:35;33.40;35.60
56322;DHT22;42227;6.376;-10.782;2023-05-28T15:29:04;33.60;37.70
56322;DHT22;42227;6.376;-10.782;2023-05-28T15:31:32;33.60;36.40
56322;DHT22;42227;6.376;-10.782;2023-05-28T15:34:01;33.50;37.00
56322;DHT22;42227;6.376;-10.782;2023-05-28T15:36:29;33.30;36.40
56322;DHT22;42227;6.376;-10.782;2023-05-28T15:38:58;33.50;37.50
56322;DHT22;42227;6.376;-10.782;2023-05-28T15:41:27;33.50;36.90
56322;DHT22;42227;6.376;-10.782;2023-05-28T15:43:56;33.40;36.70
56322;DHT22;42227;6.376;-10.782;2023-05-28T15:46:25;33.30;36.40
56322;DHT22;42227;6.376;-10.782;2023-05-28T15:48:53;33.40;37.60
56322;DHT22;42227;6.376;-10.782;2023-05-28T15:51:22;33.30;36.90